Аэропорт: Орск. Орск

ICAO: UWOR

METAR:
Информация по данной станции не доступна
METAR:
2021-01-24 16:56:00
TAF UWOR 241656Z 2418/2503 27008G14MPS 3100 -SN BR OVC010 TXM02/2418Z TNM03/2503Z TEMPO 2418/2503 28006G11MPS 0300 -FZDZ FZFG VV002